sensor_id;sensor_type;location;lat;lon;timestamp;P1;durP1;ratioP1;P2;durP2;ratioP2
60016;SDS011;45869;52.698;6.210;2022-11-11T00:00:15;13.75;;;7.55;;
60016;SDS011;45869;52.698;6.210;2022-11-11T00:02:41;17.75;;;8.65;;
60016;SDS011;45869;52.698;6.210;2022-11-11T00:05:08;13.77;;;8.65;;
60016;SDS011;45869;52.698;6.210;2022-11-11T00:07:34;12.75;;;8.18;;
60016;SDS011;45869;52.698;6.210;2022-11-11T00:10:00;13.93;;;8.23;;
60016;SDS011;45869;52.698;6.210;2022-11-11T00:12:26;14.23;;;8.27;;
60016;SDS011;45869;52.698;6.210;2022-11-11T00:14:52;15.68;;;8.77;;
60016;SDS011;45869;52.698;6.210;2022-11-11T00:17:18;16.08;;;9.38;;
60016;SDS011;45869;52.698;6.210;2022-11-11T00:20:02;16.00;;;8.73;;
60016;SDS011;45869;52.698;6.210;2022-11-11T00:22:47;14.43;;;8.65;;
60016;SDS011;45869;52.698;6.210;2022-11-11T00:25:32;14.70;;;8.30;;
60016;SDS011;45869;52.698;6.210;2022-11-11T00:27:58;15.90;;;8.30;;
60016;SDS011;45869;52.698;6.210;2022-11-11T00:30:24;17.27;;;8.35;;
60016;SDS011;45869;52.698;6.210;2022-11-11T00:32:50;15.23;;;8.30;;
60016;SDS011;45869;52.698;6.210;2022-11-11T00:35:16;14.90;;;8.70;;
60016;SDS011;45869;52.698;6.210;2022-11-11T00:38:10;12.52;;;8.18;;
60016;SDS011;45869;52.698;6.210;2022-11-11T00:40:57;13.43;;;8.05;;
60016;SDS011;45869;52.698;6.210;2022-11-11T00:43:23;18.58;;;8.95;;
60016;SDS011;45869;52.698;6.210;2022-11-11T00:45:49;13.40;;;8.63;;
60016;SDS011;45869;52.698;6.210;2022-11-11T00:48:15;14.57;;;8.98;;
60016;SDS011;45869;52.698;6.210;2022-11-11T00:50:59;16.23;;;8.77;;
60016;SDS011;45869;52.698;6.210;2022-11-11T00:53:30;12.65;;;8.77;;
60016;SDS011;45869;52.698;6.210;2022-11-11T00:55:57;14.70;;;8.57;;
60016;SDS011;45869;52.698;6.210;2022-11-11T00:58:23;15.95;;;8.93;;
60016;SDS011;45869;52.698;6.210;2022-11-11T01:00:51;13.95;;;9.02;;
60016;SDS011;45869;52.698;6.210;2022-11-11T01:03:18;12.75;;;9.18;;
60016;SDS011;45869;52.698;6.210;2022-11-11T01:05:44;15.68;;;9.90;;
60016;SDS011;45869;52.698;6.210;2022-11-11T01:08:12;15.07;;;9.50;;
60016;SDS011;45869;52.698;6.210;2022-11-11T01:10:38;14.05;;;10.18;;
60016;SDS011;45869;52.698;6.210;2022-11-11T01:13:14;18.25;;;9.70;;
60016;SDS011;45869;52.698;6.210;2022-11-11T01:15:41;15.55;;;10.05;;
60016;SDS011;45869;52.698;6.210;2022-11-11T01:18:08;17.60;;;10.27;;
60016;SDS011;45869;52.698;6.210;2022-11-11T01:20:34;15.55;;;10.00;;
60016;SDS011;45869;52.698;6.210;2022-11-11T01:23:02;19.98;;;10.68;;
60016;SDS011;45869;52.698;6.210;2022-11-11T01:25:28;15.30;;;10.18;;
60016;SDS011;45869;52.698;6.210;2022-11-11T01:27:54;16.83;;;10.73;;
60016;SDS011;45869;52.698;6.210;2022-11-11T01:30:20;17.95;;;11.25;;
60016;SDS011;45869;52.698;6.210;2022-11-11T01:32:46;18.00;;;11.65;;
60016;SDS011;45869;52.698;6.210;2022-11-11T01:35:12;17.42;;;11.02;;
60016;SDS011;45869;52.698;6.210;2022-11-11T01:37:38;18.58;;;11.60;;
60016;SDS011;45869;52.698;6.210;2022-11-11T01:40:05;18.70;;;11.93;;
60016;SDS011;45869;52.698;6.210;2022-11-11T01:42:31;18.52;;;12.35;;
60016;SDS011;45869;52.698;6.210;2022-11-11T01:47:55;17.55;;;12.38;;
60016;SDS011;45869;52.698;6.210;2022-11-11T01:50:39;18.00;;;13.35;;
60016;SDS011;45869;52.698;6.210;2022-11-11T01:53:05;21.77;;;13.77;;
60016;SDS011;45869;52.698;6.210;2022-11-11T01:55:31;18.65;;;13.90;;
60016;SDS011;45869;52.698;6.210;2022-11-11T01:57:59;19.65;;;14.43;;
60016;SDS011;45869;52.698;6.210;2022-11-11T02:00:27;19.90;;;14.90;;
60016;SDS011;45869;52.698;6.210;2022-11-11T02:03:00;23.65;;;15.30;;
60016;SDS011;45869;52.698;6.210;2022-11-11T02:05:28;23.63;;;16.00;;
60016;SDS011;45869;52.698;6.210;2022-11-11T02:10:33;25.00;;;16.92;;
60016;SDS011;45869;52.698;6.210;2022-11-11T02:12:59;20.60;;;15.75;;
60016;SDS011;45869;52.698;6.210;2022-11-11T02:15:44;22.70;;;16.48;;
60016;SDS011;45869;52.698;6.210;2022-11-11T02:18:10;27.02;;;17.65;;
60016;SDS011;45869;52.698;6.210;2022-11-11T02:20:37;24.80;;;17.08;;
60016;SDS011;45869;52.698;6.210;2022-11-11T02:25:49;25.75;;;17.63;;
60016;SDS011;45869;52.698;6.210;2022-11-11T02:28:15;25.38;;;18.58;;
60016;SDS011;45869;52.698;6.210;2022-11-11T02:30:42;25.15;;;17.60;;
60016;SDS011;45869;52.698;6.210;2022-11-11T02:33:08;22.77;;;16.75;;
60016;SDS011;45869;52.698;6.210;2022-11-11T02:35:36;27.35;;;17.45;;
60016;SDS011;45869;52.698;6.210;2022-11-11T02:38:05;21.38;;;16.25;;
60016;SDS011;45869;52.698;6.210;2022-11-11T02:40:36;26.65;;;17.70;;
60016;SDS011;45869;52.698;6.210;2022-11-11T02:43:03;26.02;;;18.13;;
60016;SDS011;45869;52.698;6.210;2022-11-11T02:45:29;23.63;;;17.83;;
60016;SDS011;45869;52.698;6.210;2022-11-11T02:47:55;32.50;;;18.98;;
60016;SDS011;45869;52.698;6.210;2022-11-11T02:50:21;24.92;;;18.50;;
60016;SDS011;45869;52.698;6.210;2022-11-11T02:52:47;26.90;;;18.20;;
60016;SDS011;45869;52.698;6.210;2022-11-11T02:55:13;26.08;;;18.00;;
60016;SDS011;45869;52.698;6.210;2022-11-11T02:57:39;26.63;;;18.85;;
60016;SDS011;45869;52.698;6.210;2022-11-11T03:00:05;28.55;;;19.05;;
60016;SDS011;45869;52.698;6.210;2022-11-11T03:02:31;27.38;;;18.52;;
60016;SDS011;45869;52.698;6.210;2022-11-11T03:04:57;26.80;;;18.45;;
60016;SDS011;45869;52.698;6.210;2022-11-11T03:07:24;24.02;;;17.55;;
60016;SDS011;45869;52.698;6.210;2022-11-11T03:09:50;27.50;;;18.63;;
60016;SDS011;45869;52.698;6.210;2022-11-11T03:12:16;26.35;;;18.25;;
60016;SDS011;45869;52.698;6.210;2022-11-11T03:14:42;25.20;;;18.80;;
60016;SDS011;45869;52.698;6.210;2022-11-11T03:17:08;26.90;;;20.55;;
60016;SDS011;45869;52.698;6.210;2022-11-11T03:19:55;26.48;;;19.20;;
60016;SDS011;45869;52.698;6.210;2022-11-11T03:22:41;28.23;;;19.67;;
60016;SDS011;45869;52.698;6.210;2022-11-11T03:25:07;27.95;;;19.23;;
60016;SDS011;45869;52.698;6.210;2022-11-11T03:27:52;28.30;;;20.30;;
60016;SDS011;45869;52.698;6.210;2022-11-11T03:30:18;31.88;;;21.33;;
60016;SDS011;45869;52.698;6.210;2022-11-11T03:32:44;27.30;;;19.77;;
60016;SDS011;45869;52.698;6.210;2022-11-11T03:35:10;27.17;;;19.70;;
60016;SDS011;45869;52.698;6.210;2022-11-11T03:37:36;33.92;;;22.00;;
60016;SDS011;45869;52.698;6.210;2022-11-11T03:40:21;29.83;;;21.05;;
60016;SDS011;45869;52.698;6.210;2022-11-11T03:42:47;33.20;;;22.45;;
60016;SDS011;45869;52.698;6.210;2022-11-11T03:45:13;31.90;;;22.20;;
60016;SDS011;45869;52.698;6.210;2022-11-11T03:47:39;30.55;;;22.50;;
60016;SDS011;45869;52.698;6.210;2022-11-11T03:50:05;32.65;;;22.67;;
60016;SDS011;45869;52.698;6.210;2022-11-11T03:52:31;31.17;;;22.08;;
60016;SDS011;45869;52.698;6.210;2022-11-11T03:54:57;32.00;;;23.13;;
60016;SDS011;45869;52.698;6.210;2022-11-11T03:57:23;30.20;;;22.00;;
60016;SDS011;45869;52.698;6.210;2022-11-11T03:59:54;32.35;;;23.05;;
60016;SDS011;45869;52.698;6.210;2022-11-11T04:02:20;36.63;;;24.15;;
60016;SDS011;45869;52.698;6.210;2022-11-11T04:05:05;37.22;;;25.38;;
60016;SDS011;45869;52.698;6.210;2022-11-11T04:07:50;31.52;;;22.92;;
60016;SDS011;45869;52.698;6.210;2022-11-11T04:10:35;32.80;;;23.77;;
60016;SDS011;45869;52.698;6.210;2022-11-11T04:13:01;37.47;;;24.83;;
60016;SDS011;45869;52.698;6.210;2022-11-11T04:15:46;37.90;;;24.05;;
60016;SDS011;45869;52.698;6.210;2022-11-11T04:18:31;35.80;;;23.65;;
60016;SDS011;45869;52.698;6.210;2022-11-11T04:21:15;35.58;;;24.52;;
60016;SDS011;45869;52.698;6.210;2022-11-11T04:24:00;33.22;;;23.35;;
60016;SDS011;45869;52.698;6.210;2022-11-11T04:26:26;33.67;;;24.13;;
60016;SDS011;45869;52.698;6.210;2022-11-11T04:28:52;38.25;;;25.27;;
60016;SDS011;45869;52.698;6.210;2022-11-11T04:31:37;35.90;;;24.30;;
60016;SDS011;45869;52.698;6.210;2022-11-11T04:34:23;33.15;;;24.42;;
60016;SDS011;45869;52.698;6.210;2022-11-11T04:36:49;33.17;;;23.55;;
60016;SDS011;45869;52.698;6.210;2022-11-11T04:39:15;32.97;;;23.85;;
60016;SDS011;45869;52.698;6.210;2022-11-11T04:42:04;34.05;;;23.05;;
60016;SDS011;45869;52.698;6.210;2022-11-11T04:44:30;33.78;;;22.48;;
60016;SDS011;45869;52.698;6.210;2022-11-11T04:47:15;35.15;;;23.60;;
60016;SDS011;45869;52.698;6.210;2022-11-11T04:49:41;35.75;;;24.23;;
60016;SDS011;45869;52.698;6.210;2022-11-11T04:52:10;33.22;;;23.52;;
60016;SDS011;45869;52.698;6.210;2022-11-11T04:54:57;37.47;;;24.50;;
60016;SDS011;45869;52.698;6.210;2022-11-11T04:57:46;36.53;;;23.58;;
60016;SDS011;45869;52.698;6.210;2022-11-11T05:00:13;34.97;;;22.63;;
60016;SDS011;45869;52.698;6.210;2022-11-11T05:02:40;32.72;;;22.38;;
60016;SDS011;45869;52.698;6.210;2022-11-11T05:05:24;32.55;;;22.63;;
60016;SDS011;45869;52.698;6.210;2022-11-11T05:07:51;33.67;;;22.67;;
60016;SDS011;45869;52.698;6.210;2022-11-11T05:10:42;30.88;;;22.80;;
60016;SDS011;45869;52.698;6.210;2022-11-11T05:13:10;33.15;;;22.55;;
60016;SDS011;45869;52.698;6.210;2022-11-11T05:15:55;32.88;;;23.45;;
60016;SDS011;45869;52.698;6.210;2022-11-11T05:18:39;37.70;;;24.73;;
60016;SDS011;45869;52.698;6.210;2022-11-11T05:21:27;33.42;;;23.40;;
60016;SDS011;45869;52.698;6.210;2022-11-11T05:23:54;38.00;;;25.58;;
60016;SDS011;45869;52.698;6.210;2022-11-11T05:26:39;40.72;;;25.23;;
60016;SDS011;45869;52.698;6.210;2022-11-11T05:29:05;37.35;;;25.08;;
60016;SDS011;45869;52.698;6.210;2022-11-11T05:31:33;34.25;;;24.40;;
60016;SDS011;45869;52.698;6.210;2022-11-11T05:33:59;33.70;;;23.88;;
60016;SDS011;45869;52.698;6.210;2022-11-11T05:36:25;33.70;;;23.13;;
60016;SDS011;45869;52.698;6.210;2022-11-11T05:38:51;35.03;;;23.50;;
60016;SDS011;45869;52.698;6.210;2022-11-11T05:41:17;34.17;;;22.80;;
60016;SDS011;45869;52.698;6.210;2022-11-11T05:43:43;33.00;;;22.98;;
60016;SDS011;45869;52.698;6.210;2022-11-11T05:46:09;34.70;;;23.58;;
60016;SDS011;45869;52.698;6.210;2022-11-11T05:48:36;35.55;;;22.52;;
60016;SDS011;45869;52.698;6.210;2022-11-11T05:51:22;31.77;;;22.08;;
60016;SDS011;45869;52.698;6.210;2022-11-11T05:53:52;34.08;;;22.25;;
60016;SDS011;45869;52.698;6.210;2022-11-11T05:56:18;35.25;;;22.17;;
60016;SDS011;45869;52.698;6.210;2022-11-11T05:58:47;34.33;;;21.75;;
60016;SDS011;45869;52.698;6.210;2022-11-11T06:01:13;33.50;;;22.50;;
60016;SDS011;45869;52.698;6.210;2022-11-11T06:03:39;31.17;;;21.08;;
60016;SDS011;45869;52.698;6.210;2022-11-11T06:06:05;31.02;;;21.42;;
60016;SDS011;45869;52.698;6.210;2022-11-11T06:08:31;33.30;;;21.58;;
60016;SDS011;45869;52.698;6.210;2022-11-11T06:10:57;30.05;;;20.67;;
60016;SDS011;45869;52.698;6.210;2022-11-11T06:13:23;31.33;;;21.40;;
60016;SDS011;45869;52.698;6.210;2022-11-11T06:15:49;29.55;;;20.05;;
60016;SDS011;45869;52.698;6.210;2022-11-11T06:18:15;28.50;;;20.40;;
60016;SDS011;45869;52.698;6.210;2022-11-11T06:20:41;29.98;;;20.63;;
60016;SDS011;45869;52.698;6.210;2022-11-11T06:23:09;30.90;;;21.05;;
60016;SDS011;45869;52.698;6.210;2022-11-11T06:25:35;26.85;;;19.33;;
60016;SDS011;45869;52.698;6.210;2022-11-11T06:28:20;30.13;;;20.67;;
60016;SDS011;45869;52.698;6.210;2022-11-11T06:30:46;30.05;;;20.80;;
60016;SDS011;45869;52.698;6.210;2022-11-11T06:33:12;32.38;;;19.98;;
60016;SDS011;45869;52.698;6.210;2022-11-11T06:35:38;27.58;;;20.67;;
60016;SDS011;45869;52.698;6.210;2022-11-11T06:38:05;28.23;;;19.80;;
60016;SDS011;45869;52.698;6.210;2022-11-11T06:40:31;28.38;;;19.52;;
60016;SDS011;45869;52.698;6.210;2022-11-11T06:42:58;29.30;;;20.00;;
60016;SDS011;45869;52.698;6.210;2022-11-11T06:45:24;28.05;;;19.70;;
60016;SDS011;45869;52.698;6.210;2022-11-11T06:47:50;27.90;;;19.80;;
60016;SDS011;45869;52.698;6.210;2022-11-11T06:50:17;28.08;;;20.15;;
60016;SDS011;45869;52.698;6.210;2022-11-11T06:52:43;29.58;;;19.77;;
60016;SDS011;45869;52.698;6.210;2022-11-11T06:55:09;30.35;;;19.67;;
60016;SDS011;45869;52.698;6.210;2022-11-11T06:57:35;28.67;;;19.98;;
60016;SDS011;45869;52.698;6.210;2022-11-11T07:00:05;27.85;;;19.50;;
60016;SDS011;45869;52.698;6.210;2022-11-11T07:02:31;28.73;;;19.30;;
60016;SDS011;45869;52.698;6.210;2022-11-11T07:04:58;29.50;;;20.30;;
60016;SDS011;45869;52.698;6.210;2022-11-11T07:07:24;29.65;;;20.42;;
60016;SDS011;45869;52.698;6.210;2022-11-11T07:09:50;27.17;;;19.20;;
60016;SDS011;45869;52.698;6.210;2022-11-11T07:12:16;29.98;;;19.63;;
60016;SDS011;45869;52.698;6.210;2022-11-11T07:14:42;31.48;;;19.17;;
60016;SDS011;45869;52.698;6.210;2022-11-11T07:17:08;28.45;;;18.85;;
60016;SDS011;45869;52.698;6.210;2022-11-11T07:19:34;30.80;;;20.00;;
60016;SDS011;45869;52.698;6.210;2022-11-11T07:22:00;31.25;;;19.83;;
60016;SDS011;45869;52.698;6.210;2022-11-11T07:24:26;31.25;;;18.95;;
60016;SDS011;45869;52.698;6.210;2022-11-11T07:26:52;25.70;;;18.67;;
60016;SDS011;45869;52.698;6.210;2022-11-11T07:29:18;27.77;;;19.25;;
60016;SDS011;45869;52.698;6.210;2022-11-11T07:31:44;29.40;;;19.52;;
60016;SDS011;45869;52.698;6.210;2022-11-11T07:34:10;26.33;;;18.80;;
60016;SDS011;45869;52.698;6.210;2022-11-11T07:36:36;27.77;;;18.20;;
60016;SDS011;45869;52.698;6.210;2022-11-11T07:39:02;24.70;;;18.00;;
60016;SDS011;45869;52.698;6.210;2022-11-11T07:41:28;26.13;;;18.98;;
60016;SDS011;45869;52.698;6.210;2022-11-11T07:43:57;25.58;;;18.08;;
60016;SDS011;45869;52.698;6.210;2022-11-11T07:46:23;31.73;;;19.13;;
60016;SDS011;45869;52.698;6.210;2022-11-11T07:48:49;26.10;;;18.60;;
60016;SDS011;45869;52.698;6.210;2022-11-11T07:51:15;26.20;;;17.80;;
60016;SDS011;45869;52.698;6.210;2022-11-11T07:53:41;26.90;;;17.05;;
60016;SDS011;45869;52.698;6.210;2022-11-11T07:56:07;26.75;;;17.90;;
60016;SDS011;45869;52.698;6.210;2022-11-11T07:58:33;23.63;;;17.80;;
60016;SDS011;45869;52.698;6.210;2022-11-11T08:00:59;23.98;;;16.77;;
60016;SDS011;45869;52.698;6.210;2022-11-11T08:03:25;23.77;;;17.33;;
60016;SDS011;45869;52.698;6.210;2022-11-11T08:05:51;25.38;;;16.83;;
60016;SDS011;45869;52.698;6.210;2022-11-11T08:08:17;26.17;;;16.95;;
60016;SDS011;45869;52.698;6.210;2022-11-11T08:10:48;22.73;;;16.95;;
60016;SDS011;45869;52.698;6.210;2022-11-11T08:13:14;24.10;;;16.48;;
60016;SDS011;45869;52.698;6.210;2022-11-11T08:15:59;23.48;;;16.05;;
60016;SDS011;45869;52.698;6.210;2022-11-11T08:18:26;22.23;;;15.93;;
60016;SDS011;45869;52.698;6.210;2022-11-11T08:20:52;23.08;;;15.80;;
60016;SDS011;45869;52.698;6.210;2022-11-11T08:23:18;23.65;;;15.52;;
60016;SDS011;45869;52.698;6.210;2022-11-11T08:25:56;22.05;;;16.40;;
60016;SDS011;45869;52.698;6.210;2022-11-11T08:28:22;24.10;;;14.90;;
60016;SDS011;45869;52.698;6.210;2022-11-11T08:30:48;26.70;;;16.25;;
60016;SDS011;45869;52.698;6.210;2022-11-11T08:33:14;21.95;;;14.95;;
60016;SDS011;45869;52.698;6.210;2022-11-11T08:35:40;19.80;;;14.25;;
60016;SDS011;45869;52.698;6.210;2022-11-11T08:38:06;23.75;;;15.13;;
60016;SDS011;45869;52.698;6.210;2022-11-11T08:40:32;22.35;;;14.30;;
60016;SDS011;45869;52.698;6.210;2022-11-11T08:42:58;19.70;;;14.23;;
60016;SDS011;45869;52.698;6.210;2022-11-11T08:45:24;19.52;;;13.68;;
60016;SDS011;45869;52.698;6.210;2022-11-11T08:47:50;18.95;;;13.50;;
60016;SDS011;45869;52.698;6.210;2022-11-11T08:50:19;20.40;;;13.93;;
60016;SDS011;45869;52.698;6.210;2022-11-11T08:52:46;18.80;;;13.60;;
60016;SDS011;45869;52.698;6.210;2022-11-11T08:55:12;17.80;;;13.48;;
60016;SDS011;45869;52.698;6.210;2022-11-11T08:57:38;18.95;;;13.60;;
60016;SDS011;45869;52.698;6.210;2022-11-11T09:00:04;16.95;;;12.77;;
60016;SDS011;45869;52.698;6.210;2022-11-11T09:02:31;19.33;;;13.15;;
60016;SDS011;45869;52.698;6.210;2022-11-11T09:04:57;19.52;;;13.70;;
60016;SDS011;45869;52.698;6.210;2022-11-11T09:07:25;23.42;;;13.77;;
60016;SDS011;45869;52.698;6.210;2022-11-11T09:09:51;20.40;;;13.15;;
60016;SDS011;45869;52.698;6.210;2022-11-11T09:12:17;21.17;;;12.77;;
60016;SDS011;45869;52.698;6.210;2022-11-11T09:14:43;17.95;;;12.65;;
60016;SDS011;45869;52.698;6.210;2022-11-11T09:17:09;21.73;;;13.18;;
60016;SDS011;45869;52.698;6.210;2022-11-11T09:19:35;19.00;;;13.48;;
60016;SDS011;45869;52.698;6.210;2022-11-11T09:22:01;17.45;;;12.80;;
60016;SDS011;45869;52.698;6.210;2022-11-11T09:24:27;17.95;;;12.98;;
60016;SDS011;45869;52.698;6.210;2022-11-11T09:26:53;19.65;;;13.00;;
60016;SDS011;45869;52.698;6.210;2022-11-11T09:29:20;18.45;;;12.60;;
60016;SDS011;45869;52.698;6.210;2022-11-11T09:31:46;17.90;;;13.10;;
60016;SDS011;45869;52.698;6.210;2022-11-11T09:34:12;18.75;;;12.32;;
60016;SDS011;45869;52.698;6.210;2022-11-11T09:36:38;17.70;;;12.63;;
60016;SDS011;45869;52.698;6.210;2022-11-11T09:39:04;16.58;;;12.07;;
60016;SDS011;45869;52.698;6.210;2022-11-11T09:43:57;18.15;;;12.18;;
60016;SDS011;45869;52.698;6.210;2022-11-11T09:46:28;17.23;;;12.93;;
60016;SDS011;45869;52.698;6.210;2022-11-11T09:51:28;20.55;;;12.55;;
60016;SDS011;45869;52.698;6.210;2022-11-11T09:53:57;18.33;;;12.32;;
60016;SDS011;45869;52.698;6.210;2022-11-11T09:56:25;17.75;;;11.98;;
60016;SDS011;45869;52.698;6.210;2022-11-11T09:59:52;17.40;;;11.82;;
60016;SDS011;45869;52.698;6.210;2022-11-11T10:01:48;16.27;;;11.48;;
60016;SDS011;45869;52.698;6.210;2022-11-11T10:04:16;19.27;;;11.57;;
60016;SDS011;45869;52.698;6.210;2022-11-11T10:06:46;22.17;;;12.60;;
60016;SDS011;45869;52.698;6.210;2022-11-11T10:09:56;15.80;;;11.60;;
60016;SDS011;45869;52.698;6.210;2022-11-11T10:12:07;12.65;;;10.48;;
60016;SDS011;45869;52.698;6.210;2022-11-11T10:14:36;16.85;;;11.15;;
60016;SDS011;45869;52.698;6.210;2022-11-11T10:17:14;16.63;;;11.15;;
60016;SDS011;45869;52.698;6.210;2022-11-11T10:19:52;15.82;;;10.45;;
60016;SDS011;45869;52.698;6.210;2022-11-11T10:22:22;17.60;;;11.40;;
60016;SDS011;45869;52.698;6.210;2022-11-11T10:25:00;14.55;;;10.43;;
60016;SDS011;45869;52.698;6.210;2022-11-11T10:27:28;17.48;;;10.65;;
60016;SDS011;45869;52.698;6.210;2022-11-11T10:29:55;14.73;;;10.38;;
60016;SDS011;45869;52.698;6.210;2022-11-11T10:32:26;14.98;;;10.20;;
60016;SDS011;45869;52.698;6.210;2022-11-11T10:34:53;15.15;;;9.95;;
60016;SDS011;45869;52.698;6.210;2022-11-11T10:37:23;14.43;;;10.18;;
60016;SDS011;45869;52.698;6.210;2022-11-11T10:42:16;14.98;;;10.15;;
60016;SDS011;45869;52.698;6.210;2022-11-11T10:44:42;14.45;;;10.05;;
60016;SDS011;45869;52.698;6.210;2022-11-11T10:47:14;14.82;;;10.00;;
60016;SDS011;45869;52.698;6.210;2022-11-11T10:50:30;15.05;;;10.20;;
60016;SDS011;45869;52.698;6.210;2022-11-11T10:52:34;12.68;;;9.65;;
60016;SDS011;45869;52.698;6.210;2022-11-11T10:55:02;13.93;;;9.90;;
60016;SDS011;45869;52.698;6.210;2022-11-11T10:57:41;12.07;;;9.30;;
60016;SDS011;45869;52.698;6.210;2022-11-11T11:00:09;13.65;;;9.23;;
60016;SDS011;45869;52.698;6.210;2022-11-11T11:02:41;13.55;;;9.40;;
60016;SDS011;45869;52.698;6.210;2022-11-11T11:05:12;11.52;;;9.07;;
60016;SDS011;45869;52.698;6.210;2022-11-11T11:07:58;13.50;;;9.75;;
60016;SDS011;45869;52.698;6.210;2022-11-11T11:10:26;14.10;;;9.30;;
60016;SDS011;45869;52.698;6.210;2022-11-11T11:12:58;14.07;;;9.43;;
60016;SDS011;45869;52.698;6.210;2022-11-11T11:15:26;12.88;;;9.38;;
60016;SDS011;45869;52.698;6.210;2022-11-11T11:17:53;13.20;;;9.05;;
60016;SDS011;45869;52.698;6.210;2022-11-11T11:20:22;13.63;;;9.50;;
60016;SDS011;45869;52.698;6.210;2022-11-11T11:22:52;12.43;;;9.27;;
60016;SDS011;45869;52.698;6.210;2022-11-11T11:25:20;12.93;;;9.55;;
60016;SDS011;45869;52.698;6.210;2022-11-11T11:27:48;15.57;;;9.85;;
60016;SDS011;45869;52.698;6.210;2022-11-11T11:30:16;13.10;;;9.73;;
60016;SDS011;45869;52.698;6.210;2022-11-11T11:32:54;12.90;;;10.15;;
60016;SDS011;45869;52.698;6.210;2022-11-11T11:35:37;11.82;;;8.98;;
60016;SDS011;45869;52.698;6.210;2022-11-11T11:38:04;12.95;;;9.75;;
60016;SDS011;45869;52.698;6.210;2022-11-11T11:40:50;13.48;;;9.52;;
60016;SDS011;45869;52.698;6.210;2022-11-11T11:43:23;13.95;;;9.63;;
60016;SDS011;45869;52.698;6.210;2022-11-11T11:45:53;11.05;;;8.85;;
60016;SDS011;45869;52.698;6.210;2022-11-11T11:56:32;12.85;;;9.45;;
60016;SDS011;45869;52.698;6.210;2022-11-11T11:59:05;13.88;;;9.75;;
60016;SDS011;45869;52.698;6.210;2022-11-11T12:01:36;13.57;;;9.68;;
60016;SDS011;45869;52.698;6.210;2022-11-11T12:09:16;11.45;;;8.75;;
60016;SDS011;45869;52.698;6.210;2022-11-11T12:11:57;12.88;;;9.75;;
60016;SDS011;45869;52.698;6.210;2022-11-11T12:17:01;13.93;;;9.77;;
60016;SDS011;45869;52.698;6.210;2022-11-11T12:19:34;11.85;;;8.98;;
60016;SDS011;45869;52.698;6.210;2022-11-11T12:22:11;13.18;;;9.32;;
60016;SDS011;45869;52.698;6.210;2022-11-11T12:27:13;13.95;;;9.43;;
60016;SDS011;45869;52.698;6.210;2022-11-11T12:45:20;12.00;;;8.82;;
60016;SDS011;45869;52.698;6.210;2022-11-11T12:47:55;20.52;;;10.18;;
60016;SDS011;45869;52.698;6.210;2022-11-11T12:55:45;12.32;;;8.35;;
60016;SDS011;45869;52.698;6.210;2022-11-11T12:58:32;12.73;;;8.90;;
60016;SDS011;45869;52.698;6.210;2022-11-11T13:09:00;11.23;;;8.75;;
60016;SDS011;45869;52.698;6.210;2022-11-11T13:11:46;11.57;;;8.38;;
60016;SDS011;45869;52.698;6.210;2022-11-11T13:16:39;10.05;;;8.43;;
60016;SDS011;45869;52.698;6.210;2022-11-11T13:21:43;11.90;;;8.85;;
60016;SDS011;45869;52.698;6.210;2022-11-11T13:24:12;14.73;;;9.07;;
60016;SDS011;45869;52.698;6.210;2022-11-11T13:26:46;14.65;;;9.13;;
60016;SDS011;45869;52.698;6.210;2022-11-11T13:29:27;9.52;;;8.15;;
60016;SDS011;45869;52.698;6.210;2022-11-11T13:31:59;11.57;;;8.23;;
60016;SDS011;45869;52.698;6.210;2022-11-11T13:34:28;12.82;;;8.95;;
60016;SDS011;45869;52.698;6.210;2022-11-11T13:36:58;13.48;;;8.70;;
60016;SDS011;45869;52.698;6.210;2022-11-11T13:39:27;10.82;;;8.07;;
60016;SDS011;45869;52.698;6.210;2022-11-11T13:41:54;11.05;;;8.55;;
60016;SDS011;45869;52.698;6.210;2022-11-11T13:44:26;11.60;;;8.70;;
60016;SDS011;45869;52.698;6.210;2022-11-11T13:46:58;14.05;;;8.55;;
60016;SDS011;45869;52.698;6.210;2022-11-11T13:49:26;11.27;;;8.80;;
60016;SDS011;45869;52.698;6.210;2022-11-11T13:52:03;11.93;;;8.80;;
60016;SDS011;45869;52.698;6.210;2022-11-11T13:54:39;13.80;;;8.90;;
60016;SDS011;45869;52.698;6.210;2022-11-11T13:57:08;12.32;;;8.10;;
60016;SDS011;45869;52.698;6.210;2022-11-11T13:59:43;10.63;;;8.05;;
60016;SDS011;45869;52.698;6.210;2022-11-11T14:05:13;12.95;;;8.30;;
60016;SDS011;45869;52.698;6.210;2022-11-11T14:12:43;12.23;;;8.43;;
60016;SDS011;45869;52.698;6.210;2022-11-11T14:17:55;14.27;;;9.13;;
60016;SDS011;45869;52.698;6.210;2022-11-11T14:20:42;10.60;;;8.13;;
60016;SDS011;45869;52.698;6.210;2022-11-11T14:25:39;12.65;;;8.30;;
60016;SDS011;45869;52.698;6.210;2022-11-11T14:28:18;14.57;;;8.60;;
60016;SDS011;45869;52.698;6.210;2022-11-11T14:30:44;14.32;;;8.80;;
60016;SDS011;45869;52.698;6.210;2022-11-11T14:36:10;11.88;;;8.50;;
60016;SDS011;45869;52.698;6.210;2022-11-11T14:38:43;10.05;;;7.97;;
60016;SDS011;45869;52.698;6.210;2022-11-11T14:44:01;11.85;;;8.20;;
60016;SDS011;45869;52.698;6.210;2022-11-11T14:52:14;12.75;;;8.82;;
60016;SDS011;45869;52.698;6.210;2022-11-11T14:54:53;11.70;;;8.27;;
60016;SDS011;45869;52.698;6.210;2022-11-11T14:57:21;9.95;;;8.07;;
60016;SDS011;45869;52.698;6.210;2022-11-11T14:59:48;14.35;;;8.55;;
60016;SDS011;45869;52.698;6.210;2022-11-11T15:02:35;11.75;;;8.32;;
60016;SDS011;45869;52.698;6.210;2022-11-11T15:05:02;12.63;;;9.20;;
60016;SDS011;45869;52.698;6.210;2022-11-11T15:07:32;11.80;;;8.40;;
60016;SDS011;45869;52.698;6.210;2022-11-11T15:10:15;12.13;;;8.90;;
60016;SDS011;45869;52.698;6.210;2022-11-11T15:15:31;14.25;;;9.00;;
60016;SDS011;45869;52.698;6.210;2022-11-11T15:18:06;13.88;;;9.13;;
60016;SDS011;45869;52.698;6.210;2022-11-11T15:20:44;13.60;;;8.77;;
60016;SDS011;45869;52.698;6.210;2022-11-11T15:23:16;14.68;;;8.88;;
60016;SDS011;45869;52.698;6.210;2022-11-11T15:25:59;13.48;;;9.60;;
60016;SDS011;45869;52.698;6.210;2022-11-11T15:28:40;13.85;;;9.88;;
60016;SDS011;45869;52.698;6.210;2022-11-11T15:31:14;13.15;;;9.55;;
60016;SDS011;45869;52.698;6.210;2022-11-11T15:33:51;12.80;;;9.50;;
60016;SDS011;45869;52.698;6.210;2022-11-11T15:36:30;13.75;;;9.38;;
60016;SDS011;45869;52.698;6.210;2022-11-11T15:38:57;12.27;;;9.02;;
60016;SDS011;45869;52.698;6.210;2022-11-11T15:41:27;12.90;;;9.10;;
60016;SDS011;45869;52.698;6.210;2022-11-11T15:43:57;14.25;;;9.65;;
60016;SDS011;45869;52.698;6.210;2022-11-11T15:46:28;15.95;;;10.40;;
60016;SDS011;45869;52.698;6.210;2022-11-11T15:48:55;14.85;;;9.73;;
60016;SDS011;45869;52.698;6.210;2022-11-11T15:53:47;13.63;;;9.77;;
60016;SDS011;45869;52.698;6.210;2022-11-11T15:56:29;10.98;;;8.75;;
60016;SDS011;45869;52.698;6.210;2022-11-11T15:58:55;14.43;;;9.60;;
60016;SDS011;45869;52.698;6.210;2022-11-11T16:01:24;11.52;;;8.52;;
60016;SDS011;45869;52.698;6.210;2022-11-11T16:03:50;14.52;;;9.05;;
60016;SDS011;45869;52.698;6.210;2022-11-11T16:06:16;12.40;;;8.88;;
60016;SDS011;45869;52.698;6.210;2022-11-11T16:08:43;13.25;;;9.10;;
60016;SDS011;45869;52.698;6.210;2022-11-11T16:11:13;13.70;;;9.20;;
60016;SDS011;45869;52.698;6.210;2022-11-11T16:13:47;17.15;;;10.18;;
60016;SDS011;45869;52.698;6.210;2022-11-11T16:16:26;12.30;;;8.98;;
60016;SDS011;45869;52.698;6.210;2022-11-11T16:18:56;12.98;;;8.80;;
60016;SDS011;45869;52.698;6.210;2022-11-11T16:23:50;14.05;;;9.68;;